Time;durP1;ratioP1;P1;durP2;ratioP2;P2;SDS_P1;SDS_P2;PMS_P1;PMS_P2;Temp;Humidity;BMP_temperature;BMP_pressure;BME280_temperature;BME280_humidity;BME280_pressure;Samples;Min_cycle;Max_cycle;Signal;HPM_P1;HPM_P2
2023/06/15 00:01:40;;;;;;;7.72;4.93;;;20.40;82.60;;;;;;5012411;28;20105;-49
2023/06/15 00:04:06;;;;;;;7.07;4.72;;;20.40;82.60;;;;;;5012594;28;20057;-45
2023/06/15 00:06:32;;;;;;;7.03;5.35;;;20.40;82.40;;;;;;5012549;28;20470;-48
2023/06/15 00:08:58;;;;;;;7.82;5.15;;;20.50;82.40;;;;;;5012558;28;20113;-44
2023/06/15 00:11:24;;;;;;;7.53;5.15;;;20.50;82.40;;;;;;5012168;28;20026;-47
2023/06/15 00:13:50;;;;;;;6.88;5.05;;;20.50;82.40;;;;;;5011885;28;20413;-49
2023/06/15 00:16:18;;;;;;;7.03;5.72;;;20.50;82.50;;;;;;5012253;28;20037;-47
2023/06/15 00:18:47;;;;;;;6.63;4.90;;;20.50;82.50;;;;;;5012393;28;20025;-46
2023/06/15 00:21:16;;;;;;;5.57;4.80;;;20.50;82.50;;;;;;5012247;28;20083;-49
2023/06/15 00:23:45;;;;;;;6.82;4.95;;;20.50;82.50;;;;;;5012055;28;20022;-47
2023/06/15 00:26:11;;;;;;;6.82;4.78;;;20.50;82.50;;;;;;5012356;28;20103;-46
2023/06/15 00:28:36;;;;;;;6.40;5.07;;;20.50;82.50;;;;;;5012053;28;20109;-48
2023/06/15 00:31:02;;;;;;;7.13;5.05;;;20.50;82.50;;;;;;5011900;28;20032;-48
2023/06/15 00:33:28;;;;;;;5.38;4.53;;;20.40;82.40;;;;;;5012275;28;20025;-50
2023/06/15 00:35:53;;;;;;;9.57;4.85;;;20.40;82.50;;;;;;5011914;28;20433;-48
2023/06/15 00:38:19;;;;;;;8.23;5.38;;;20.40;82.50;;;;;;5011982;28;20026;-48
2023/06/15 00:40:45;;;;;;;6.97;4.80;;;20.40;82.30;;;;;;5012199;28;20149;-46
2023/06/15 00:43:11;;;;;;;7.15;5.22;;;20.40;82.20;;;;;;5011855;28;20585;-46
2023/06/15 00:45:37;;;;;;;5.80;4.78;;;20.40;82.70;;;;;;5011915;28;20054;-47
2023/06/15 00:48:03;;;;;;;6.55;5.10;;;20.30;82.10;;;;;;5011703;28;20034;-47
2023/06/15 00:50:31;;;;;;;6.45;4.93;;;20.30;82.10;;;;;;5012169;28;20381;-47
2023/06/15 00:53:03;;;;;;;7.65;5.13;;;20.30;82.00;;;;;;5012118;28;20058;-47
2023/06/15 00:55:33;;;;;;;6.80;4.80;;;20.20;82.00;;;;;;5011928;28;20371;-45
2023/06/15 00:58:00;;;;;;;9.63;5.53;;;20.20;82.20;;;;;;5011853;28;20026;-46
2023/06/15 01:00:26;;;;;;;7.75;5.13;;;20.10;82.20;;;;;;5011961;28;20113;-47
2023/06/15 01:02:56;;;;;;;8.20;5.43;;;20.10;82.40;;;;;;5011620;28;20034;-44
2023/06/15 01:05:22;;;;;;;9.90;5.50;;;20.10;82.50;;;;;;5011741;28;20034;-50
2023/06/15 01:07:51;;;;;;;9.65;5.57;;;20.10;82.50;;;;;;5011949;28;20101;-49
2023/06/15 01:10:20;;;;;;;6.00;4.78;;;20.10;82.50;;;;;;5012574;28;20531;-49
2023/06/15 01:12:50;;;;;;;5.63;5.00;;;20.10;82.60;;;;;;5015369;28;20046;-50
2023/06/15 01:15:16;;;;;;;6.78;5.05;;;20.00;82.50;;;;;;5015000;28;20041;-46
2023/06/15 01:17:45;;;;;;;7.65;5.43;;;20.00;83.20;;;;;;5015258;28;20037;-45
2023/06/15 01:20:21;;;;;;;6.93;5.45;;;20.00;82.70;;;;;;5015066;28;20022;-45
2023/06/15 01:23:10;;;;;;;7.15;5.20;;;20.00;82.50;;;;;;5015032;28;20032;-49
2023/06/15 01:25:44;;;;;;;7.47;5.38;;;19.90;82.40;;;;;;5014713;28;20026;-45
2023/06/15 01:28:13;;;;;;;7.38;5.40;;;19.90;82.60;;;;;;5014865;28;20030;-45
2023/06/15 01:30:44;;;;;;;6.30;5.15;;;19.90;82.70;;;;;;5013565;28;20053;-44
2023/06/15 01:33:14;;;;;;;6.05;5.13;;;19.80;82.70;;;;;;5015195;28;20030;-47
2023/06/15 01:35:40;;;;;;;10.20;5.72;;;19.80;82.90;;;;;;5014841;28;20030;-46
2023/06/15 01:38:06;;;;;;;5.97;5.22;;;19.80;83.00;;;;;;5014627;28;20026;-46
2023/06/15 01:40:36;;;;;;;7.10;5.40;;;19.80;83.10;;;;;;5014543;28;20117;-48
2023/06/15 01:43:04;;;;;;;6.97;5.50;;;19.70;83.10;;;;;;5014521;28;20022;-46
2023/06/15 01:45:30;;;;;;;8.57;5.90;;;19.70;83.40;;;;;;5014623;28;20481;-49
2023/06/15 01:47:56;;;;;;;10.82;6.65;;;19.70;84.00;;;;;;5014416;28;20030;-49
2023/06/15 01:50:24;;;;;;;6.35;5.75;;;19.60;84.30;;;;;;5014487;28;20052;-48
2023/06/15 01:52:50;;;;;;;7.03;5.75;;;19.60;84.70;;;;;;5012893;28;20084;-45
2023/06/15 01:55:15;;;;;;;7.13;5.90;;;19.60;85.00;;;;;;5013947;28;20038;-48
2023/06/15 01:57:41;;;;;;;7.05;5.47;;;19.60;85.30;;;;;;5014757;28;20037;-47
2023/06/15 02:00:10;;;;;;;9.43;6.75;;;19.60;85.50;;;;;;5013989;28;20030;-45
2023/06/15 02:02:36;;;;;;;7.97;5.80;;;19.60;85.70;;;;;;5013840;28;20513;-47
2023/06/15 02:05:03;;;;;;;6.32;5.18;;;19.60;85.80;;;;;;5014003;28;20030;-49
2023/06/15 02:07:29;;;;;;;6.85;5.30;;;19.60;85.80;;;;;;5014185;28;20026;-46
2023/06/15 02:09:55;;;;;;;7.20;5.75;;;19.60;85.80;;;;;;5014203;28;20392;-46
2023/06/15 02:12:21;;;;;;;8.75;5.75;;;19.60;85.90;;;;;;5014416;28;20026;-45
2023/06/15 02:14:49;;;;;;;6.15;5.53;;;19.60;86.00;;;;;;5013736;28;20054;-45
2023/06/15 02:17:18;;;;;;;7.80;5.28;;;19.50;86.00;;;;;;5013903;28;20029;-49
2023/06/15 02:19:45;;;;;;;8.50;5.80;;;19.50;86.20;;;;;;5013842;28;20059;-48
2023/06/15 02:22:11;;;;;;;7.43;5.57;;;19.50;86.30;;;;;;5013775;28;20541;-46
2023/06/15 02:24:36;;;;;;;9.10;6.78;;;19.50;86.40;;;;;;5013756;28;20198;-46
2023/06/15 02:27:02;;;;;;;9.77;6.07;;;19.40;86.50;;;;;;5013409;28;20033;-49
2023/06/15 02:29:28;;;;;;;7.47;6.15;;;19.40;86.70;;;;;;5013473;28;20033;-45
2023/06/15 02:31:53;;;;;;;9.30;5.90;;;19.40;87.10;;;;;;5014016;28;20033;-47
2023/06/15 02:34:20;;;;;;;7.13;6.43;;;19.40;87.30;;;;;;5013753;28;20092;-47
2023/06/15 02:36:48;;;;;;;8.00;5.97;;;19.40;87.50;;;;;;5013321;28;20024;-49
2023/06/15 02:39:14;;;;;;;8.45;6.25;;;19.40;87.70;;;;;;5013713;28;20041;-47
2023/06/15 02:41:40;;;;;;;7.45;5.95;;;19.40;87.90;;;;;;5013381;28;20022;-48
2023/06/15 02:44:07;;;;;;;6.75;6.13;;;19.40;88.20;;;;;;5013272;28;20080;-46
2023/06/15 02:46:33;;;;;;;6.85;6.15;;;19.30;88.40;;;;;;5013527;28;20108;-45
2023/06/15 02:48:59;;;;;;;8.88;6.88;;;19.30;88.40;;;;;;5013249;28;20041;-48
2023/06/15 02:51:24;;;;;;;9.82;7.07;;;19.40;88.60;;;;;;5012926;28;20033;-47
2023/06/15 02:53:50;;;;;;;6.50;5.90;;;19.30;88.70;;;;;;5012887;28;20061;-48
2023/06/15 02:56:20;;;;;;;10.30;5.95;;;19.40;88.60;;;;;;5013012;28;20045;-49
2023/06/15 02:58:47;;;;;;;6.63;5.93;;;19.30;88.30;;;;;;5011549;28;20026;-47
2023/06/15 03:01:17;;;;;;;7.88;6.38;;;19.30;88.30;;;;;;5010764;28;20054;-48
2023/06/15 03:03:43;;;;;;;7.45;6.50;;;19.30;88.30;;;;;;5011081;28;20034;-47
2023/06/15 03:06:09;;;;;;;7.88;6.47;;;19.30;88.30;;;;;;5011168;28;20105;-47
2023/06/15 03:08:36;;;;;;;7.05;6.18;;;19.30;88.50;;;;;;5010972;28;20026;-48
2023/06/15 03:11:02;;;;;;;7.43;6.60;;;19.30;88.90;;;;;;5011186;28;20556;-45
2023/06/15 03:13:29;;;;;;;6.43;5.75;;;19.30;89.00;;;;;;5011945;28;20036;-45
2023/06/15 03:15:55;;;;;;;7.32;6.13;;;19.30;89.20;;;;;;5012774;28;20033;-46
2023/06/15 03:18:21;;;;;;;9.27;6.65;;;19.40;89.30;;;;;;5013030;28;20061;-47
2023/06/15 03:20:52;;;;;;;7.85;7.05;;;19.40;89.30;;;;;;5012489;28;20022;-48
2023/06/15 03:23:19;;;;;;;7.53;6.47;;;19.40;89.30;;;;;;5013189;28;20037;-47
2023/06/15 03:25:45;;;;;;;9.13;6.97;;;19.40;89.40;;;;;;5012470;28;20034;-50
2023/06/15 03:28:11;;;;;;;8.48;6.60;;;19.40;89.50;;;;;;5012051;28;20037;-49
2023/06/15 03:30:40;;;;;;;8.43;7.15;;;19.50;89.60;;;;;;5012747;28;20095;-46
2023/06/15 03:33:06;;;;;;;7.32;6.57;;;19.50;89.60;;;;;;5012385;28;20034;-47
2023/06/15 03:35:33;;;;;;;8.32;6.88;;;19.60;89.70;;;;;;5012529;28;20030;-46
2023/06/15 03:37:59;;;;;;;8.57;6.70;;;19.60;89.60;;;;;;5012565;28;20029;-48
2023/06/15 03:40:25;;;;;;;9.27;6.50;;;19.60;89.50;;;;;;5011946;28;20033;-47
2023/06/15 03:42:50;;;;;;;7.72;6.60;;;19.60;89.60;;;;;;5010960;28;20032;-47
2023/06/15 03:45:17;;;;;;;9.07;6.85;;;19.60;89.50;;;;;;5009117;28;20121;-46
2023/06/15 03:47:45;;;;;;;8.38;6.20;;;19.70;89.70;;;;;;5010201;28;20034;-47
2023/06/15 03:50:11;;;;;;;8.85;7.07;;;19.60;90.10;;;;;;5010143;28;20026;-45
2023/06/15 03:52:37;;;;;;;6.32;5.72;;;19.70;89.70;;;;;;5008907;28;20033;-48
2023/06/15 03:55:03;;;;;;;8.10;6.55;;;19.70;89.50;;;;;;5009267;28;20505;-47
2023/06/15 03:57:29;;;;;;;7.85;6.72;;;19.70;89.50;;;;;;5009983;28;20026;-48
2023/06/15 03:59:55;;;;;;;9.05;6.50;;;19.70;89.30;;;;;;5010645;28;20041;-47
2023/06/15 04:02:21;;;;;;;7.13;6.30;;;19.70;89.30;;;;;;5010926;28;20049;-45
2023/06/15 04:04:46;;;;;;;7.53;6.13;;;19.70;89.50;;;;;;5010728;28;20382;-49
2023/06/15 04:07:12;;;;;;;6.63;5.63;;;19.70;89.30;;;;;;5010811;28;20030;-50
2023/06/15 04:09:38;;;;;;;7.47;5.55;;;19.70;89.20;;;;;;5011817;28;20029;-48
2023/06/15 04:12:04;;;;;;;7.57;5.72;;;19.70;89.20;;;;;;5011930;28;20034;-47
2023/06/15 04:14:30;;;;;;;7.13;5.88;;;19.70;89.20;;;;;;5011467;28;20129;-47
2023/06/15 04:16:56;;;;;;;7.28;5.88;;;19.80;89.20;;;;;;5012120;28;20441;-48
2023/06/15 04:19:22;;;;;;;7.15;5.85;;;19.80;89.10;;;;;;5011699;28;20049;-48
2023/06/15 04:21:48;;;;;;;6.95;6.20;;;19.80;89.10;;;;;;5011481;28;20030;-47
2023/06/15 04:24:14;;;;;;;6.15;5.35;;;19.80;89.20;;;;;;5011842;28;20026;-47
2023/06/15 04:26:41;;;;;;;6.50;5.78;;;19.80;89.30;;;;;;5012200;28;20065;-44
2023/06/15 04:29:08;;;;;;;6.35;5.43;;;19.80;89.10;;;;;;5012040;28;20482;-48
2023/06/15 04:31:34;;;;;;;8.23;6.45;;;19.90;89.10;;;;;;5012144;28;20026;-45
2023/06/15 04:34:00;;;;;;;7.75;5.60;;;19.90;89.10;;;;;;5012380;28;20034;-49
2023/06/15 04:36:27;;;;;;;7.78;5.93;;;19.90;89.00;;;;;;5012934;28;20030;-48
2023/06/15 04:38:53;;;;;;;7.07;5.72;;;19.90;88.70;;;;;;5012913;28;20029;-50
2023/06/15 04:41:22;;;;;;;6.53;5.82;;;20.00;88.60;;;;;;5012456;28;20489;-48
2023/06/15 04:43:48;;;;;;;8.18;5.65;;;20.00;88.60;;;;;;5012115;28;20516;-52
2023/06/15 04:46:17;;;;;;;7.47;5.65;;;20.10;88.50;;;;;;5014708;28;20072;-48
2023/06/15 04:48:43;;;;;;;8.50;6.22;;;20.10;88.40;;;;;;5016143;28;20033;-49
2023/06/15 04:51:13;;;;;;;7.57;5.90;;;20.10;88.30;;;;;;5016163;28;20053;-48
2023/06/15 04:53:42;;;;;;;6.60;5.97;;;20.20;88.30;;;;;;5016065;28;20026;-48
2023/06/15 04:56:08;;;;;;;7.90;5.88;;;20.20;88.30;;;;;;5021414;28;20030;-49
2023/06/15 04:58:34;;;;;;;6.00;5.40;;;20.20;88.20;;;;;;5021416;28;20057;-46
2023/06/15 05:00:59;;;;;;;6.82;5.85;;;20.20;88.10;;;;;;5020882;28;20022;-46
2023/06/15 05:03:25;;;;;;;6.43;5.55;;;20.20;88.20;;;;;;5019727;28;20029;-45
2023/06/15 05:05:51;;;;;;;7.68;6.20;;;20.30;88.40;;;;;;5020075;28;20026;-46
2023/06/15 05:08:16;;;;;;;6.90;5.43;;;20.30;88.50;;;;;;5019805;28;20095;-48
2023/06/15 05:10:42;;;;;;;6.75;6.10;;;20.30;88.50;;;;;;5019324;28;20030;-49
2023/06/15 05:13:08;;;;;;;6.15;5.55;;;20.40;88.70;;;;;;5019935;28;20125;-47
2023/06/15 05:15:34;;;;;;;5.97;5.28;;;20.40;88.80;;;;;;5020769;28;20042;-47
2023/06/15 05:18:00;;;;;;;5.70;5.10;;;20.40;88.50;;;;;;5020331;28;20030;-47
2023/06/15 05:20:25;;;;;;;7.68;6.00;;;20.50;88.40;;;;;;5019735;28;20084;-49
2023/06/15 05:22:51;;;;;;;6.93;5.28;;;20.50;88.20;;;;;;5021074;28;20026;-49
2023/06/15 05:25:18;;;;;;;6.55;5.20;;;20.50;87.90;;;;;;5021129;28;20044;-49
2023/06/15 05:27:44;;;;;;;8.07;5.30;;;20.60;87.80;;;;;;5021149;28;20030;-50
2023/06/15 05:30:11;;;;;;;6.60;5.20;;;20.60;87.50;;;;;;5021802;28;20076;-50
2023/06/15 05:32:38;;;;;;;7.53;5.65;;;20.70;87.50;;;;;;5021704;28;20030;-49
2023/06/15 05:35:07;;;;;;;5.55;5.00;;;20.80;87.20;;;;;;5022316;28;20040;-50
2023/06/15 05:37:37;;;;;;;8.23;4.95;;;20.80;87.00;;;;;;5020225;28;20021;-48
2023/06/15 05:40:03;;;;;;;5.85;5.25;;;20.90;86.60;;;;;;5020264;28;20208;-47
2023/06/15 05:42:29;;;;;;;6.53;5.80;;;21.00;86.40;;;;;;5020678;28;20345;-50
2023/06/15 05:44:55;;;;;;;6.30;5.70;;;21.10;85.90;;;;;;5021572;28;20036;-47
2023/06/15 05:47:21;;;;;;;5.75;5.05;;;21.20;85.60;;;;;;5021890;28;20053;-48
2023/06/15 05:49:47;;;;;;;8.85;5.05;;;21.30;85.40;;;;;;5021893;28;20334;-50
2023/06/15 05:52:14;;;;;;;6.07;5.30;;;21.40;85.30;;;;;;5022696;28;20028;-48
2023/06/15 05:54:43;;;;;;;7.18;5.30;;;21.50;85.30;;;;;;5021199;28;20092;-48
2023/06/15 05:57:10;;;;;;;5.68;4.95;;;21.70;85.20;;;;;;5020627;28;20063;-47
2023/06/15 05:59:36;;;;;;;6.70;5.13;;;22.00;85.00;;;;;;5021855;28;20030;-49
2023/06/15 06:02:02;;;;;;;5.82;4.65;;;22.20;84.50;;;;;;5020545;28;20026;-50
2023/06/15 06:04:28;;;;;;;6.25;4.95;;;22.40;83.90;;;;;;5011744;28;20386;-52
2023/06/15 06:06:54;;;;;;;6.15;4.53;;;22.60;84.00;;;;;;5015798;28;20029;-48
2023/06/15 06:09:20;;;;;;;6.25;4.60;;;22.80;82.50;;;;;;5010398;28;20039;-48
2023/06/15 06:11:49;;;;;;;5.78;4.55;;;23.00;82.50;;;;;;5013064;28;20029;-49
2023/06/15 06:14:15;;;;;;;5.95;4.70;;;23.30;80.90;;;;;;5011913;28;20046;-48
2023/06/15 06:16:42;;;;;;;6.40;4.30;;;23.40;80.20;;;;;;5012325;28;20033;-47
2023/06/15 06:19:08;;;;;;;4.95;4.15;;;23.60;79.70;;;;;;5014005;28;20033;-47
2023/06/15 06:21:33;;;;;;;5.50;3.92;;;23.70;79.20;;;;;;5009855;28;20485;-48
2023/06/15 06:23:59;;;;;;;4.72;4.20;;;23.80;78.60;;;;;;5009923;28;20034;-48
2023/06/15 06:26:25;;;;;;;6.30;4.22;;;23.90;78.00;;;;;;5009520;28;20022;-50
2023/06/15 06:28:51;;;;;;;4.50;4.10;;;23.90;77.60;;;;;;5001838;28;20037;-46
2023/06/15 06:31:17;;;;;;;5.30;4.10;;;24.00;77.40;;;;;;5011920;28;20033;-48
2023/06/15 06:33:42;;;;;;;5.70;4.00;;;24.10;77.30;;;;;;4994430;28;20034;-50
2023/06/15 06:36:08;;;;;;;5.22;4.18;;;24.10;77.10;;;;;;5000883;28;20026;-46
2023/06/15 06:38:34;;;;;;;5.55;4.10;;;24.20;76.10;;;;;;5008868;28;20022;-46
2023/06/15 06:41:00;;;;;;;6.13;4.30;;;24.30;75.20;;;;;;4994016;28;20528;-47
2023/06/15 06:43:26;;;;;;;6.03;4.88;;;24.30;74.00;;;;;;4994027;28;20026;-47
2023/06/15 06:45:52;;;;;;;8.43;4.63;;;24.30;73.30;;;;;;5000733;28;20054;-47
2023/06/15 06:48:18;;;;;;;5.63;4.05;;;24.30;73.10;;;;;;5011322;28;20538;-49
2023/06/15 06:50:43;;;;;;;5.22;4.20;;;24.30;73.00;;;;;;5010061;28;20034;-49
2023/06/15 06:53:10;;;;;;;8.20;3.85;;;24.30;72.90;;;;;;5008689;28;20297;-48
2023/06/15 06:55:35;;;;;;;5.43;4.03;;;24.30;72.70;;;;;;5009682;28;20138;-48
2023/06/15 06:58:01;;;;;;;5.53;3.90;;;24.20;72.60;;;;;;5025878;28;20112;-51
2023/06/15 07:00:30;;;;;;;5.95;4.00;;;24.20;72.70;;;;;;5017751;28;20443;-50
2023/06/15 07:02:56;;;;;;;6.28;4.22;;;24.20;72.70;;;;;;5021757;28;20048;-50
2023/06/15 07:05:22;;;;;;;8.15;4.82;;;24.20;72.60;;;;;;5011644;28;20030;-48
2023/06/15 07:07:48;;;;;;;6.85;4.35;;;24.20;72.20;;;;;;5015407;28;20037;-49
2023/06/15 07:10:13;;;;;;;5.95;4.50;;;24.30;72.20;;;;;;5026282;28;20067;-48
2023/06/15 07:12:40;;;;;;;5.18;4.28;;;24.30;72.30;;;;;;5005474;28;20156;-47
2023/06/15 07:15:06;;;;;;;5.43;3.83;;;24.30;72.10;;;;;;5027348;28;20034;-47
2023/06/15 07:17:32;;;;;;;8.60;4.57;;;24.30;72.00;;;;;;5025436;28;20021;-49
2023/06/15 07:19:58;;;;;;;5.63;4.22;;;24.30;72.00;;;;;;5024114;28;20050;-49
2023/06/15 07:22:24;;;;;;;6.85;4.88;;;24.30;71.70;;;;;;5024312;28;20025;-49
2023/06/15 07:24:50;;;;;;;6.93;4.28;;;24.40;72.30;;;;;;5042378;28;20042;-48
2023/06/15 07:27:18;;;;;;;6.95;4.45;;;24.40;71.30;;;;;;5024313;28;20030;-48
2023/06/15 07:29:44;;;;;;;5.65;4.15;;;24.40;71.10;;;;;;5024312;28;20029;-48
2023/06/15 07:32:10;;;;;;;8.07;4.43;;;24.40;71.10;;;;;;5027473;28;20034;-48
2023/06/15 07:34:36;;;;;;;6.25;4.55;;;24.40;71.10;;;;;;5025071;28;20050;-50
2023/06/15 07:37:02;;;;;;;7.53;4.28;;;24.50;70.60;;;;;;5025987;28;20037;-49
2023/06/15 07:39:28;;;;;;;7.93;4.30;;;24.50;70.40;;;;;;5010255;28;20132;-51
2023/06/15 07:41:54;;;;;;;8.40;4.70;;;24.60;70.30;;;;;;5006887;28;20061;-44
2023/06/15 07:44:20;;;;;;;6.50;4.28;;;24.60;70.00;;;;;;5020345;28;20037;-47
2023/06/15 07:46:45;;;;;;;5.55;3.60;;;24.60;70.00;;;;;;5022517;28;20041;-51
2023/06/15 07:49:11;;;;;;;6.45;4.57;;;24.70;69.90;;;;;;5027910;28;20105;-50
2023/06/15 07:51:36;;;;;;;6.07;4.22;;;24.70;69.80;;;;;;5013376;28;20104;-54
2023/06/15 07:54:02;;;;;;;6.00;4.00;;;24.70;69.70;;;;;;5013801;28;20044;-51
2023/06/15 07:56:28;;;;;;;7.43;4.40;;;24.70;69.40;;;;;;5011831;28;20051;-49
2023/06/15 07:58:54;;;;;;;6.47;4.53;;;24.70;70.10;;;;;;5021089;28;20033;-47
2023/06/15 08:01:20;;;;;;;6.70;4.40;;;24.60;69.10;;;;;;5013739;28;20397;-53
2023/06/15 08:03:45;;;;;;;5.43;4.00;;;24.60;69.40;;;;;;5002110;28;20041;-51
2023/06/15 08:06:11;;;;;;;4.95;4.03;;;24.60;69.60;;;;;;5012717;28;20034;-51
2023/06/15 08:08:37;;;;;;;7.05;4.20;;;24.60;69.60;;;;;;5011254;28;20033;-48
2023/06/15 08:11:05;;;;;;;7.05;4.47;;;24.60;69.20;;;;;;5022961;28;20034;-46
2023/06/15 08:13:31;;;;;;;7.05;4.30;;;24.60;69.00;;;;;;5024201;28;20042;-49
2023/06/15 08:15:58;;;;;;;5.47;4.03;;;24.50;69.10;;;;;;5011954;28;20023;-48
2023/06/15 08:18:25;;;;;;;5.53;4.03;;;24.50;69.30;;;;;;5008020;28;20225;-50
2023/06/15 08:20:52;;;;;;;5.85;4.30;;;24.50;69.50;;;;;;5022463;28;20033;-50
2023/06/15 08:23:18;;;;;;;4.80;3.92;;;24.50;69.80;;;;;;5027737;28;20010;-47
2023/06/15 08:25:43;;;;;;;4.75;3.90;;;24.50;69.90;;;;;;5029602;28;20094;-48
2023/06/15 08:28:09;;;;;;;4.80;3.97;;;24.50;69.80;;;;;;5029849;28;20028;-48
2023/06/15 08:30:35;;;;;;;5.03;3.90;;;24.50;69.80;;;;;;5031236;28;20029;-48
2023/06/15 08:33:01;;;;;;;5.03;3.40;;;24.50;69.80;;;;;;5025450;28;20046;-52
2023/06/15 08:35:26;;;;;;;5.13;4.18;;;24.50;69.90;;;;;;5010584;28;20137;-49
2023/06/15 08:37:52;;;;;;;7.40;3.65;;;24.50;69.70;;;;;;5027639;28;20036;-49
2023/06/15 08:40:19;;;;;;;7.35;4.10;;;24.50;69.80;;;;;;5021000;28;20048;-52
2023/06/15 08:42:45;;;;;;;5.53;3.83;;;24.50;69.90;;;;;;5024512;28;20094;-49
2023/06/15 08:45:11;;;;;;;4.95;3.70;;;24.50;69.60;;;;;;5019795;28;20034;-53
2023/06/15 08:47:38;;;;;;;7.30;3.90;;;24.50;69.40;;;;;;5022931;28;20086;-53
2023/06/15 08:50:05;;;;;;;5.50;4.03;;;24.60;69.00;;;;;;5022889;28;20052;-50
2023/06/15 08:52:33;;;;;;;6.22;4.30;;;24.60;69.10;;;;;;5017498;28;20037;-48
2023/06/15 08:55:01;;;;;;;5.65;3.55;;;24.70;68.90;;;;;;5005243;28;20491;-50
2023/06/15 08:57:27;;;;;;;6.60;3.90;;;24.70;68.80;;;;;;5004229;28;20030;-49
2023/06/15 08:59:53;;;;;;;6.05;3.90;;;24.80;69.20;;;;;;5008927;28;20043;-49
2023/06/15 09:02:20;;;;;;;6.32;4.05;;;24.80;69.10;;;;;;4998936;28;21808;-48
2023/06/15 09:04:50;;;;;;;4.97;3.90;;;24.90;68.90;;;;;;5006238;28;20033;-50
2023/06/15 09:07:18;;;;;;;5.90;3.90;;;25.00;69.10;;;;;;5004236;28;20038;-50
2023/06/15 09:10:08;;;;;;;6.70;4.13;;;25.00;68.90;;;;;;5009098;28;20052;-48
2023/06/15 09:12:34;;;;;;;5.50;4.18;;;25.10;68.80;;;;;;5009200;28;20057;-52
2023/06/15 09:15:00;;;;;;;7.82;4.15;;;25.10;68.60;;;;;;5008817;28;20466;-50
2023/06/15 09:17:28;;;;;;;4.30;3.65;;;25.10;68.60;;;;;;5010126;28;20037;-48
2023/06/15 09:19:55;;;;;;;7.45;4.00;;;25.10;68.70;;;;;;5002621;28;20076;-51
2023/06/15 09:22:20;;;;;;;5.55;4.15;;;25.10;68.70;;;;;;5011538;28;20109;-49
2023/06/15 09:24:46;;;;;;;6.32;3.55;;;25.10;68.90;;;;;;5009845;28;20116;-52
2023/06/15 09:27:15;;;;;;;6.35;3.60;;;25.00;69.00;;;;;;5021055;28;20040;-50
2023/06/15 09:30:05;;;;;;;5.47;3.60;;;25.00;69.20;;;;;;5033101;28;20006;-46
2023/06/15 09:32:30;;;;;;;4.40;4.00;;;24.90;69.10;;;;;;5016759;28;20032;-52
2023/06/15 09:34:58;;;;;;;4.38;3.83;;;24.90;69.40;;;;;;5014633;28;20128;-51
2023/06/15 09:37:28;;;;;;;5.78;3.20;;;24.80;69.30;;;;;;5016913;28;20060;-54
2023/06/15 09:39:54;;;;;;;5.57;3.83;;;24.80;69.50;;;;;;5029375;28;20022;-54
2023/06/15 09:42:28;;;;;;;5.10;3.53;;;24.80;69.60;;;;;;5015927;28;20034;-50
2023/06/15 09:44:58;;;;;;;5.25;3.13;;;24.70;69.50;;;;;;5002762;28;20091;-52
2023/06/15 09:47:31;;;;;;;4.95;3.45;;;24.70;69.50;;;;;;5007801;28;20033;-53
2023/06/15 09:50:00;;;;;;;4.40;3.20;;;24.80;69.80;;;;;;5010982;28;20490;-54
2023/06/15 09:52:26;;;;;;;5.07;3.20;;;24.80;70.00;;;;;;5015193;28;20025;-48
2023/06/15 09:54:53;;;;;;;3.78;3.05;;;24.80;69.90;;;;;;5032710;28;20040;-50
2023/06/15 09:57:19;;;;;;;4.60;3.50;;;24.80;69.80;;;;;;5043069;28;20014;-51
2023/06/15 09:59:46;;;;;;;4.63;3.30;;;24.90;69.90;;;;;;5022006;28;20121;-53
2023/06/15 10:02:15;;;;;;;5.03;3.30;;;24.90;69.80;;;;;;5009028;28;20034;-50
2023/06/15 10:04:42;;;;;;;5.10;3.10;;;25.00;69.80;;;;;;5008991;28;20040;-51
2023/06/15 10:07:12;;;;;;;3.78;3.10;;;25.10;69.50;;;;;;5008184;28;20503;-53
2023/06/15 10:09:44;;;;;;;4.50;3.53;;;25.10;69.70;;;;;;5012963;28;20358;-47
2023/06/15 10:12:16;;;;;;;5.65;3.20;;;25.20;69.80;;;;;;5011761;28;20041;-52
2023/06/15 10:14:58;;;;;;;4.68;3.85;;;25.20;69.60;;;;;;5009114;28;20181;-54
2023/06/15 10:17:32;;;;;;;4.60;3.55;;;25.20;69.40;;;;;;5012078;28;20096;-49
2023/06/15 10:20:08;;;;;;;4.38;3.00;;;25.20;69.20;;;;;;5006255;28;20037;-52
2023/06/15 10:22:48;;;;;;;4.13;3.30;;;25.30;69.10;;;;;;5010420;28;20030;-51
2023/06/15 10:25:15;;;;;;;5.90;3.30;;;25.30;69.00;;;;;;5013270;28;20569;-51
2023/06/15 10:27:42;;;;;;;4.00;3.38;;;25.20;68.90;;;;;;5010567;28;20056;-52
2023/06/15 10:30:16;;;;;;;5.93;3.53;;;25.20;69.00;;;;;;5013789;28;20029;-51
2023/06/15 10:33:11;;;;;;;3.80;3.42;;;25.20;69.00;;;;;;5009558;28;20159;-53
2023/06/15 10:35:45;;;;;;;5.65;3.53;;;25.20;69.40;;;;;;5004939;28;20057;-51
2023/06/15 10:38:30;;;;;;;4.32;3.25;;;25.20;69.50;;;;;;5013079;28;20030;-52
2023/06/15 10:40:57;;;;;;;4.72;3.45;;;25.30;69.70;;;;;;5013896;28;20033;-48
2023/06/15 10:43:26;;;;;;;3.35;2.85;;;25.30;69.60;;;;;;5013059;28;20040;-51
2023/06/15 10:45:52;;;;;;;3.92;3.13;;;25.30;69.60;;;;;;5014984;28;20097;-53
2023/06/15 10:48:38;;;;;;;6.93;3.22;;;25.30;69.60;;;;;;5011004;28;20188;-51
2023/06/15 10:51:06;;;;;;;3.83;3.45;;;25.40;69.60;;;;;;5014080;28;20084;-52
2023/06/15 10:53:45;;;;;;;6.05;3.60;;;25.30;69.60;;;;;;5009482;28;20036;-52
2023/06/15 10:56:20;;;;;;;4.05;3.28;;;25.40;69.60;;;;;;5006543;28;20211;-49
2023/06/15 10:59:07;;;;;;;7.03;3.72;;;25.40;69.70;;;;;;5004908;28;22102;-50
2023/06/15 11:01:33;;;;;;;4.55;3.25;;;25.40;69.90;;;;;;5003887;28;20034;-53
2023/06/15 11:04:29;;;;;;;4.80;3.50;;;25.40;70.10;;;;;;5006460;28;20026;-51
2023/06/15 11:06:56;;;;;;;4.93;3.45;;;25.40;70.30;;;;;;5014108;28;20048;-51
2023/06/15 11:09:24;;;;;;;3.50;2.97;;;25.50;70.50;;;;;;5009843;28;20030;-53
2023/06/15 11:11:50;;;;;;;5.45;3.25;;;25.50;70.20;;;;;;5012934;28;20048;-52
2023/06/15 11:14:26;;;;;;;4.22;3.30;;;25.60;70.30;;;;;;5020074;28;20034;-49
2023/06/15 11:17:05;;;;;;;4.97;2.80;;;25.60;70.20;;;;;;4999502;28;20462;-49
2023/06/15 11:19:31;;;;;;;5.75;3.30;;;25.60;69.80;;;;;;5001445;28;20084;-50
2023/06/15 11:22:07;;;;;;;4.60;2.97;;;25.60;69.80;;;;;;5011174;28;20089;-48
2023/06/15 11:24:37;;;;;;;4.22;3.03;;;25.70;69.40;;;;;;5013031;28;20041;-52
2023/06/15 11:27:09;;;;;;;5.32;3.25;;;25.70;69.40;;;;;;5012184;28;20037;-50
2023/06/15 11:29:41;;;;;;;7.07;3.00;;;25.70;69.40;;;;;;5003479;28;20030;-49
2023/06/15 11:32:09;;;;;;;4.97;3.42;;;25.80;69.50;;;;;;4998995;28;20030;-50
2023/06/15 11:34:36;;;;;;;4.18;3.20;;;25.70;69.50;;;;;;5011341;28;20787;-47
2023/06/15 11:37:03;;;;;;;5.00;3.40;;;25.80;69.30;;;;;;5008305;28;20010;-51
2023/06/15 11:39:30;;;;;;;4.80;3.20;;;25.80;69.20;;;;;;5009989;28;20163;-47
2023/06/15 11:41:58;;;;;;;4.22;3.05;;;25.80;69.10;;;;;;5012976;28;21136;-49
2023/06/15 11:44:26;;;;;;;5.38;3.30;;;25.90;69.10;;;;;;5019231;28;20018;-47
2023/06/15 11:46:53;;;;;;;4.80;2.97;;;25.90;68.90;;;;;;5024912;28;20037;-47
2023/06/15 11:49:19;;;;;;;3.08;2.72;;;25.90;68.90;;;;;;5016056;28;20119;-51
2023/06/15 11:51:47;;;;;;;3.67;2.90;;;25.90;68.60;;;;;;5028314;28;20010;-48
2023/06/15 11:54:13;;;;;;;4.47;2.90;;;26.00;68.80;;;;;;5021656;28;20040;-49
2023/06/15 11:56:48;;;;;;;4.97;3.35;;;26.00;68.50;;;;;;5020736;28;20021;-52
2023/06/15 11:59:20;;;;;;;3.55;2.85;;;26.10;69.00;;;;;;5020006;28;20072;-51
2023/06/15 12:01:46;;;;;;;3.70;2.67;;;26.10;68.30;;;;;;5023411;28;20022;-48
2023/06/15 12:04:15;;;;;;;3.78;2.88;;;26.20;68.30;;;;;;5016481;28;20044;-46
2023/06/15 12:06:42;;;;;;;5.20;3.22;;;26.10;68.20;;;;;;5018802;28;20028;-47
2023/06/15 12:09:09;;;;;;;4.63;2.88;;;26.20;68.30;;;;;;5021786;28;20022;-46
2023/06/15 12:11:35;;;;;;;3.60;3.05;;;26.20;68.20;;;;;;5014801;28;20032;-47
2023/06/15 12:14:01;;;;;;;5.80;3.45;;;26.20;68.30;;;;;;5018292;28;20092;-47
2023/06/15 12:16:29;;;;;;;4.32;3.20;;;26.20;68.30;;;;;;5024452;28;20050;-49
2023/06/15 12:18:58;;;;;;;3.20;2.90;;;26.20;68.30;;;;;;5020578;28;20029;-49
2023/06/15 12:21:24;;;;;;;4.70;3.30;;;26.20;68.30;;;;;;5017868;28;20052;-45
2023/06/15 12:23:50;;;;;;;4.72;3.22;;;26.20;68.30;;;;;;5003298;28;20061;-50
2023/06/15 12:26:18;;;;;;;4.57;3.20;;;26.20;68.20;;;;;;5016957;28;20026;-50
2023/06/15 12:28:49;;;;;;;3.88;3.40;;;26.20;68.00;;;;;;5009923;28;20113;-48
2023/06/15 12:31:14;;;;;;;4.63;3.53;;;26.20;67.80;;;;;;5007797;28;20080;-51
2023/06/15 12:33:42;;;;;;;4.53;3.50;;;26.20;68.00;;;;;;5007441;28;20034;-49
2023/06/15 12:36:13;;;;;;;4.20;3.33;;;26.20;67.70;;;;;;5010297;28;20261;-50
2023/06/15 12:38:39;;;;;;;5.32;3.30;;;26.20;67.50;;;;;;5020029;28;20852;-50
2023/06/15 12:41:12;;;;;;;7.38;3.40;;;26.20;67.50;;;;;;5016511;28;20116;-47
2023/06/15 12:43:38;;;;;;;5.18;3.38;;;26.20;67.30;;;;;;5007978;28;20077;-51
2023/06/15 12:46:04;;;;;;;4.13;3.30;;;26.20;67.30;;;;;;4996276;28;20022;-49
2023/06/15 12:48:31;;;;;;;5.40;3.33;;;26.20;67.30;;;;;;5000862;28;20041;-46